createdAt,value
2022-08-03T00:01:36.068Z,4.95
2022-08-03T00:04:04.292Z,4.75
2022-08-03T00:06:36.812Z,5.75
2022-08-03T00:09:06.787Z,3.70
2022-08-03T00:11:36.701Z,5.18
2022-08-03T00:14:05.074Z,8.73
2022-08-03T00:16:33.191Z,6.38
2022-08-03T00:19:01.318Z,4.43
2022-08-03T00:21:30.271Z,4.93
2022-08-03T00:23:58.265Z,7.10
2022-08-03T00:26:26.288Z,7.20
2022-08-03T00:28:55.749Z,4.32
2022-08-03T00:31:40.042Z,4.18
2022-08-03T00:34:12.511Z,3.95
2022-08-03T00:36:41.013Z,5.00
2022-08-03T00:39:09.371Z,6.78
2022-08-03T00:41:37.431Z,4.55
2022-08-03T00:44:06.941Z,6.35
2022-08-03T00:46:35.001Z,4.13
2022-08-03T00:49:03.863Z,6.53
2022-08-03T00:51:32.767Z,4.18
2022-08-03T00:54:00.855Z,5.63
2022-08-03T00:56:28.942Z,7.05
2022-08-03T00:58:59.172Z,4.70
2022-08-03T01:01:29.190Z,5.93
2022-08-03T01:04:01.200Z,7.38
2022-08-03T01:06:39.573Z,5.35
2022-08-03T01:09:16.874Z,5.63
2022-08-03T01:11:59.965Z,4.50
2022-08-03T01:14:35.413Z,4.68
2022-08-03T01:17:12.763Z,4.30
2022-08-03T01:19:51.536Z,6.75
2022-08-03T01:22:46.047Z,5.50
2022-08-03T01:25:24.838Z,6.78
2022-08-03T01:28:02.956Z,6.03
2022-08-03T01:30:34.616Z,6.50
2022-08-03T01:33:06.477Z,6.70
2022-08-03T01:35:40.236Z,4.80
2022-08-03T01:38:13.093Z,6.50
2022-08-03T01:40:43.699Z,2.75
2022-08-03T01:44:26.218Z,5.63
2022-08-03T01:46:06.508Z,4.97
2022-08-03T01:48:37.315Z,6.13
2022-08-03T01:51:06.484Z,7.35
2022-08-03T01:53:36.184Z,6.10
2022-08-03T01:56:07.143Z,5.95
2022-08-03T01:58:36.270Z,7.60
2022-08-03T02:01:07.103Z,9.90
2022-08-03T02:03:38.175Z,8.15
2022-08-03T02:07:00.863Z,7.38
2022-08-03T02:09:17.111Z,6.03
2022-08-03T02:11:47.841Z,5.95
2022-08-03T02:14:17.187Z,6.95
2022-08-03T02:16:47.390Z,6.13
2022-08-03T02:19:17.703Z,5.55
2022-08-03T02:21:55.670Z,8.55
2022-08-03T02:24:25.822Z,5.18
2022-08-03T02:26:56.727Z,7.38
2022-08-03T02:29:40.090Z,6.95
2022-08-03T02:32:13.557Z,7.50
2022-08-03T02:34:43.903Z,6.22
2022-08-03T02:41:42.477Z,9.18
2022-08-03T02:44:12.227Z,10.32
2022-08-03T02:46:44.559Z,7.15
2022-08-03T02:49:41.111Z,11.00
2022-08-03T02:52:13.117Z,11.77
2022-08-03T02:54:45.457Z,9.30
2022-08-03T02:57:14.871Z,9.95
2022-08-03T02:59:44.913Z,6.55
2022-08-03T03:07:51.287Z,7.50
2022-08-03T03:10:21.972Z,6.53
2022-08-03T03:12:51.300Z,8.73
2022-08-03T03:15:19.617Z,7.07
2022-08-03T03:17:48.944Z,7.65
2022-08-03T03:20:29.370Z,6.90
2022-08-03T03:23:01.300Z,8.50
2022-08-03T03:25:30.423Z,10.85
2022-08-03T03:36:11.394Z,8.02
2022-08-03T03:38:40.845Z,12.68
2022-08-03T03:41:09.157Z,7.95
2022-08-03T03:43:37.230Z,10.63
2022-08-03T03:46:05.961Z,7.20
2022-08-03T03:48:35.533Z,8.02
2022-08-03T03:51:04.299Z,10.50
2022-08-03T03:53:32.375Z,9.30
2022-08-03T03:56:03.076Z,9.65
2022-08-03T03:58:32.768Z,9.50
2022-08-03T04:01:01.328Z,9.48
2022-08-03T04:03:29.519Z,7.68
2022-08-03T04:06:15.725Z,9.57
2022-08-03T04:09:01.181Z,11.23
2022-08-03T04:11:35.823Z,8.07
2022-08-03T04:14:07.851Z,8.65
2022-08-03T04:16:43.598Z,7.75
2022-08-03T04:19:17.483Z,10.65
2022-08-03T04:21:52.335Z,11.35
2022-08-03T04:24:26.436Z,12.30
2022-08-03T04:26:58.511Z,10.40
2022-08-03T04:29:27.669Z,10.60
2022-08-03T04:31:57.286Z,8.48
2022-08-03T04:34:25.369Z,8.70
2022-08-03T04:36:58.680Z,14.35
2022-08-03T04:39:28.728Z,9.55
2022-08-03T04:42:06.995Z,8.25
2022-08-03T04:44:40.429Z,9.30
2022-08-03T04:47:08.741Z,12.50
2022-08-03T04:49:38.062Z,7.75
2022-08-03T04:52:08.481Z,9.65
2022-08-03T04:54:41.455Z,11.98
2022-08-03T04:57:21.916Z,11.98
2022-08-03T04:59:59.572Z,12.38
2022-08-03T05:02:30.764Z,12.50
2022-08-03T05:04:59.102Z,8.13
2022-08-03T05:07:35.854Z,7.88
2022-08-03T05:10:15.114Z,12.38
2022-08-03T05:12:49.038Z,7.43
2022-08-03T05:15:17.086Z,8.05
2022-08-03T05:17:45.466Z,9.07
2022-08-03T05:20:18.132Z,8.45
2022-08-03T05:22:47.158Z,7.68
2022-08-03T05:25:17.080Z,10.93
2022-08-03T05:27:49.296Z,6.30
2022-08-03T05:30:31.532Z,9.68
2022-08-03T05:33:03.010Z,11.98
2022-08-03T05:36:02.640Z,8.07
2022-08-03T05:38:24.033Z,8.88
2022-08-03T05:41:21.785Z,10.75
2022-08-03T05:43:47.363Z,7.13
2022-08-03T05:46:15.606Z,6.25
2022-08-03T05:48:43.937Z,6.72
2022-08-03T05:51:12.436Z,6.30
2022-08-03T05:53:41.282Z,7.93
2022-08-03T05:56:14.610Z,9.68
2022-08-03T05:58:46.365Z,5.63
2022-08-03T06:01:14.757Z,8.45
2022-08-03T06:03:42.893Z,8.70
2022-08-03T06:06:11.689Z,7.70
2022-08-03T06:08:39.934Z,7.70
2022-08-03T06:11:08.051Z,7.13
2022-08-03T06:13:36.254Z,7.38
2022-08-03T06:16:06.241Z,8.02
2022-08-03T06:18:34.510Z,9.20
2022-08-03T06:21:14.771Z,9.32
2022-08-03T06:23:54.478Z,4.00
2022-08-03T06:26:27.785Z,7.80
2022-08-03T06:28:56.717Z,9.35
2022-08-03T06:31:32.322Z,7.72
2022-08-03T06:34:33.865Z,6.53
2022-08-03T06:36:52.546Z,4.45
2022-08-03T06:39:23.391Z,7.63
2022-08-03T06:41:53.146Z,5.53
2022-08-03T06:44:21.202Z,7.78
2022-08-03T06:46:51.233Z,7.55
2022-08-03T06:49:19.781Z,6.10
2022-08-03T06:52:04.476Z,7.85
2022-08-03T06:54:35.765Z,9.70
2022-08-03T06:57:04.274Z,6.63
2022-08-03T07:00:09.499Z,7.22
2022-08-03T07:02:21.821Z,5.90
2022-08-03T07:04:50.075Z,8.98
2022-08-03T07:07:19.378Z,7.22
2022-08-03T07:09:56.824Z,8.02
2022-08-03T07:12:26.821Z,10.18
2022-08-03T07:14:59.998Z,8.85
2022-08-03T07:17:31.638Z,6.95
2022-08-03T07:20:00.397Z,6.00
2022-08-03T07:22:28.674Z,6.35
2022-08-03T07:24:57.607Z,6.00
2022-08-03T07:27:27.021Z,12.15
2022-08-03T07:29:55.280Z,10.80
2022-08-03T07:32:23.517Z,6.70
2022-08-03T07:34:57.086Z,6.47
2022-08-03T07:37:29.136Z,10.15
2022-08-03T07:39:57.248Z,10.63
2022-08-03T07:42:25.310Z,8.75
2022-08-03T07:44:53.404Z,11.38
2022-08-03T07:47:22.311Z,10.68
2022-08-03T07:49:52.404Z,8.52
2022-08-03T07:52:37.876Z,8.27
2022-08-03T07:55:07.487Z,5.20
2022-08-03T07:57:35.874Z,8.13
2022-08-03T08:00:05.737Z,8.55
2022-08-03T08:02:33.810Z,7.50
2022-08-03T08:05:05.742Z,8.02
2022-08-03T08:07:34.374Z,7.93
2022-08-03T08:10:02.420Z,10.13
2022-08-03T08:12:30.428Z,9.10
2022-08-03T08:14:58.704Z,11.32
2022-08-03T08:17:26.809Z,11.60
2022-08-03T08:19:54.872Z,8.20
2022-08-03T08:22:30.426Z,7.20
2022-08-03T08:24:59.453Z,9.52
2022-08-03T08:27:27.674Z,7.32
2022-08-03T08:30:00.537Z,9.80
2022-08-03T08:32:32.860Z,10.38
2022-08-03T08:35:00.878Z,11.55
2022-08-03T08:37:30.325Z,10.57
2022-08-03T08:39:58.608Z,7.93
2022-08-03T08:42:26.687Z,10.35
2022-08-03T08:44:55.894Z,9.27
2022-08-03T08:47:26.267Z,8.55
2022-08-03T08:50:09.158Z,9.02
2022-08-03T08:52:42.442Z,11.52
2022-08-03T08:55:12.124Z,9.68
2022-08-03T08:57:45.423Z,12.32
2022-08-03T09:00:15.053Z,8.57
2022-08-03T09:02:43.764Z,7.13
2022-08-03T09:05:13.487Z,10.90
2022-08-03T09:07:43.746Z,8.02
2022-08-03T09:10:15.743Z,4.90
2022-08-03T09:12:45.643Z,5.35
2022-08-03T09:15:24.569Z,12.00
2022-08-03T09:17:54.566Z,6.63
2022-08-03T09:20:24.322Z,8.27
2022-08-03T09:22:59.154Z,7.57
2022-08-03T09:25:34.465Z,7.45
2022-08-03T09:28:08.425Z,10.43
2022-08-03T09:30:37.266Z,6.35
2022-08-03T09:33:08.413Z,5.55
2022-08-03T09:35:58.809Z,10.95
2022-08-03T09:38:28.302Z,6.43
2022-08-03T09:41:01.033Z,9.73
2022-08-03T09:43:29.251Z,6.63
2022-08-03T09:46:05.006Z,6.05
2022-08-03T09:48:35.014Z,7.07
2022-08-03T09:51:14.341Z,8.27
2022-08-03T09:54:00.247Z,7.18
2022-08-03T09:56:43.743Z,8.48
2022-08-03T09:59:13.511Z,12.20
2022-08-03T10:01:42.696Z,9.55
2022-08-03T10:04:16.934Z,6.45
2022-08-03T10:06:45.806Z,11.35
2022-08-03T10:09:16.654Z,7.72
2022-08-03T10:11:46.916Z,8.88
2022-08-03T10:14:19.158Z,8.23
2022-08-03T10:16:48.675Z,7.18
2022-08-03T10:19:17.514Z,10.10
2022-08-03T10:21:51.861Z,11.98
2022-08-03T10:24:27.266Z,11.32
2022-08-03T10:27:02.426Z,10.25
2022-08-03T10:29:33.469Z,12.60
2022-08-03T10:32:05.479Z,12.93
2022-08-03T10:34:39.241Z,9.60
2022-08-03T10:37:13.313Z,8.43
2022-08-03T10:39:53.438Z,11.30
2022-08-03T10:42:24.165Z,12.05
2022-08-03T10:45:02.394Z,9.25
2022-08-03T10:47:31.370Z,9.32
2022-08-03T10:50:00.441Z,8.88
2022-08-03T10:52:33.604Z,8.77
2022-08-03T10:55:48.454Z,5.90
2022-08-03T10:58:30.307Z,12.63
2022-08-03T11:00:58.998Z,9.30
2022-08-03T11:03:27.226Z,10.60
2022-08-03T11:06:14.993Z,11.88
2022-08-03T11:08:43.074Z,9.77
2022-08-03T11:11:29.589Z,11.93
2022-08-03T11:14:00.462Z,15.38
2022-08-03T11:16:29.016Z,11.57
2022-08-03T11:18:58.323Z,7.63
2022-08-03T11:22:07.755Z,11.65
2022-08-03T11:25:00.895Z,12.88
2022-08-03T11:27:32.830Z,11.02
2022-08-03T11:30:03.839Z,12.93
2022-08-03T11:33:00.417Z,7.53
2022-08-03T11:35:30.491Z,9.00
2022-08-03T11:38:07.188Z,9.38
2022-08-03T11:40:38.973Z,14.32
2022-08-03T11:43:10.594Z,9.40
2022-08-03T11:45:39.299Z,11.02
2022-08-03T11:48:17.917Z,10.10
2022-08-03T11:50:46.405Z,10.52
2022-08-03T11:53:17.251Z,12.00
2022-08-03T11:55:48.878Z,12.00
2022-08-03T11:59:00.814Z,12.15
2022-08-03T12:01:11.441Z,14.05
2022-08-03T12:03:39.554Z,7.38
2022-08-03T12:06:11.544Z,9.50
2022-08-03T12:08:40.515Z,9.77
2022-08-03T12:11:11.453Z,7.28
2022-08-03T12:14:05.773Z,11.38
2022-08-03T12:16:31.087Z,7.18
2022-08-03T12:19:01.002Z,9.60
2022-08-03T12:21:29.582Z,8.88
2022-08-03T12:24:00.513Z,11.50
2022-08-03T12:26:29.923Z,8.18
2022-08-03T12:28:59.335Z,8.90
2022-08-03T12:31:27.634Z,9.00
2022-08-03T12:34:04.049Z,9.80
2022-08-03T12:36:33.762Z,7.93
2022-08-03T12:39:03.633Z,10.60
2022-08-03T12:41:34.026Z,11.48
2022-08-03T12:44:05.140Z,7.13
2022-08-03T12:46:35.282Z,7.53
2022-08-03T12:49:12.091Z,8.02
2022-08-03T12:51:58.137Z,9.48
2022-08-03T12:54:27.967Z,9.68
2022-08-03T12:57:00.599Z,4.35
2022-08-03T12:59:35.238Z,4.85
2022-08-03T13:02:17.750Z,3.80
2022-08-03T13:04:47.256Z,3.60
2022-08-03T13:07:16.817Z,5.50
2022-08-03T13:09:48.162Z,5.88
2022-08-03T13:12:17.610Z,6.88
2022-08-03T13:14:48.930Z,7.63
2022-08-03T13:17:17.785Z,4.32
2022-08-03T13:19:46.860Z,3.15
2022-08-03T13:22:17.152Z,7.18
2022-08-03T13:24:46.926Z,2.60
2022-08-03T13:28:01.492Z,2.90
2022-08-03T13:30:06.089Z,4.88
2022-08-03T13:32:34.674Z,5.72
2022-08-03T13:35:03.025Z,4.35
2022-08-03T13:37:32.486Z,5.95
2022-08-03T13:40:02.522Z,2.95
2022-08-03T13:42:32.620Z,6.10
2022-08-03T13:45:01.377Z,4.93
2022-08-03T13:47:30.802Z,6.30
2022-08-03T13:50:01.437Z,4.38
2022-08-03T13:52:32.403Z,4.97
2022-08-03T13:55:00.926Z,6.82
2022-08-03T13:58:06.314Z,2.58
2022-08-03T14:00:27.480Z,4.00
2022-08-03T14:03:12.226Z,5.10
2022-08-03T14:05:41.523Z,3.83
2022-08-03T14:08:09.945Z,3.55
2022-08-03T14:10:39.739Z,4.35
2022-08-03T14:13:08.078Z,4.28
2022-08-03T14:15:38.298Z,3.20
2022-08-03T14:18:13.020Z,2.50
2022-08-03T14:20:48.608Z,5.03
2022-08-03T14:23:19.019Z,3.63
2022-08-03T14:25:51.825Z,2.78
2022-08-03T14:28:22.496Z,3.83
2022-08-03T14:30:51.724Z,6.32
2022-08-03T14:33:21.711Z,3.03
2022-08-03T14:35:50.483Z,5.47
2022-08-03T14:38:22.062Z,4.60
2022-08-03T14:40:50.648Z,7.25
2022-08-03T14:43:20.304Z,7.47
2022-08-03T14:45:48.836Z,4.10
2022-08-03T14:50:32.308Z,4.80
2022-08-03T14:51:06.926Z,4.68
2022-08-03T14:53:35.544Z,5.45
2022-08-03T14:56:09.387Z,5.03
2022-08-03T14:58:38.383Z,8.10
2022-08-03T15:02:02.513Z,3.78
2022-08-03T15:03:55.482Z,4.13
2022-08-03T15:06:25.141Z,3.08
2022-08-03T15:09:13.913Z,8.40
2022-08-03T15:11:41.534Z,3.50
2022-08-03T15:14:09.780Z,7.43
2022-08-03T15:16:38.250Z,3.70
2022-08-03T15:20:03.516Z,2.75
2022-08-03T15:21:55.888Z,4.53
2022-08-03T15:24:23.967Z,3.25
2022-08-03T15:26:53.171Z,5.72
2022-08-03T15:30:07.625Z,5.57
2022-08-03T15:32:09.879Z,3.88
2022-08-03T15:34:38.026Z,7.20
2022-08-03T15:37:12.762Z,6.40
2022-08-03T15:39:59.370Z,4.57
2022-08-03T15:42:28.719Z,5.88
2022-08-03T15:44:56.840Z,4.93
2022-08-03T15:47:25.046Z,3.78
2022-08-03T15:49:53.113Z,4.07
2022-08-03T15:52:22.572Z,3.97
2022-08-03T15:54:50.871Z,3.90
2022-08-03T15:57:19.184Z,6.45
2022-08-03T15:59:47.460Z,4.15
2022-08-03T16:02:16.163Z,3.75
2022-08-03T16:04:44.211Z,3.65
2022-08-03T16:07:12.753Z,5.30
2022-08-03T16:09:44.062Z,5.18
2022-08-03T16:12:16.327Z,8.18
2022-08-03T16:14:52.816Z,5.10
2022-08-03T16:17:22.623Z,6.57
2022-08-03T16:19:54.837Z,4.07
2022-08-03T16:22:23.820Z,2.90
2022-08-03T16:24:53.951Z,5.30
2022-08-03T16:27:36.998Z,5.65
2022-08-03T16:30:12.846Z,3.92
2022-08-03T16:32:40.840Z,6.55
2022-08-03T16:35:09.974Z,5.15
2022-08-03T16:37:56.263Z,3.90
2022-08-03T16:40:26.407Z,2.47
2022-08-03T16:42:54.519Z,4.15
2022-08-03T16:45:23.032Z,7.00
2022-08-03T16:48:01.837Z,3.28
2022-08-03T16:50:35.000Z,4.28
2022-08-03T16:53:09.237Z,4.78
2022-08-03T16:55:43.252Z,4.22
2022-08-03T16:58:44.524Z,4.00
2022-08-03T17:01:22.205Z,5.22
2022-08-03T17:04:01.343Z,11.32
2022-08-03T17:06:34.138Z,19.27
2022-08-03T17:09:03.975Z,4.03
2022-08-03T17:11:43.855Z,4.53
2022-08-03T17:14:13.690Z,4.40
2022-08-03T17:16:45.100Z,5.18
2022-08-03T17:19:23.625Z,2.35
2022-08-03T17:22:01.171Z,3.25
2022-08-03T17:24:32.742Z,2.80
2022-08-03T17:27:08.873Z,4.72
2022-08-03T17:29:45.289Z,5.00
2022-08-03T17:32:18.334Z,2.90
2022-08-03T17:34:50.065Z,3.20
2022-08-03T17:37:50.546Z,6.38
2022-08-03T17:40:16.014Z,7.28
2022-08-03T17:42:50.468Z,4.32
2022-08-03T17:45:19.349Z,4.43
2022-08-03T17:47:57.055Z,4.25
2022-08-03T17:50:34.333Z,5.95
2022-08-03T17:53:07.236Z,4.28
2022-08-03T17:55:55.892Z,5.18
2022-08-03T17:58:42.144Z,5.45
2022-08-03T18:02:00.375Z,3.65
2022-08-03T18:04:29.666Z,5.70
2022-08-03T18:07:00.485Z,3.35
2022-08-03T18:10:04.008Z,2.55
2022-08-03T18:12:40.605Z,3.65
2022-08-03T18:15:21.163Z,7.00
2022-08-03T18:17:55.604Z,6.70
2022-08-03T18:20:34.140Z,3.65
2022-08-03T18:23:07.433Z,2.58
2022-08-03T18:25:44.454Z,3.88
2022-08-03T18:28:18.828Z,7.35
2022-08-03T18:30:53.583Z,5.07
2022-08-03T18:34:19.774Z,3.25
2022-08-03T18:36:17.589Z,2.70
2022-08-03T18:38:48.100Z,4.55
2022-08-03T18:41:26.451Z,3.95
2022-08-03T18:44:07.207Z,5.13
2022-08-03T18:46:48.797Z,4.35
2022-08-03T18:49:29.136Z,5.47
2022-08-03T18:52:03.714Z,5.47
2022-08-03T18:54:53.438Z,3.70
2022-08-03T18:57:37.990Z,5.00
2022-08-03T19:00:10.533Z,3.88
2022-08-03T19:02:50.048Z,5.28
2022-08-03T19:05:21.368Z,4.45
2022-08-03T19:07:59.647Z,4.15
2022-08-03T19:10:32.118Z,6.05
2022-08-03T19:13:05.065Z,4.22
2022-08-03T19:15:51.318Z,4.53
2022-08-03T19:18:22.800Z,5.10
2022-08-03T19:20:54.729Z,2.80
2022-08-03T19:23:25.524Z,4.35
2022-08-03T19:25:54.443Z,2.90
2022-08-03T19:28:30.104Z,5.03
2022-08-03T19:31:02.857Z,4.88
2022-08-03T19:33:57.224Z,3.88
2022-08-03T19:36:27.511Z,4.20
2022-08-03T19:38:57.239Z,4.93
2022-08-03T19:41:31.166Z,7.85
2022-08-03T19:44:12.659Z,7.03
2022-08-03T19:46:54.086Z,6.00
2022-08-03T19:50:04.810Z,3.75
2022-08-03T19:52:20.573Z,5.72
2022-08-03T19:55:20.238Z,4.60
2022-08-03T19:57:49.587Z,6.40
2022-08-03T20:00:26.654Z,6.18
2022-08-03T20:02:58.805Z,5.20
2022-08-03T20:05:29.456Z,5.25
2022-08-03T20:08:14.652Z,6.78
2022-08-03T20:10:42.756Z,6.15
2022-08-03T20:13:19.420Z,4.15
2022-08-03T20:15:47.764Z,6.00
2022-08-03T20:18:21.560Z,4.38
2022-08-03T20:20:54.504Z,4.20
2022-08-03T20:23:25.806Z,3.85
2022-08-03T20:26:05.460Z,4.20
2022-08-03T20:28:50.040Z,6.43
2022-08-03T20:31:20.843Z,3.20
2022-08-03T20:33:52.037Z,7.22
2022-08-03T20:36:21.503Z,5.00
2022-08-03T20:38:51.928Z,5.20
2022-08-03T20:41:20.605Z,3.63
2022-08-03T20:43:49.521Z,5.93
2022-08-03T20:46:34.302Z,3.33
2022-08-03T20:49:09.425Z,4.00
2022-08-03T20:51:49.664Z,8.65
2022-08-03T20:54:29.928Z,5.78
2022-08-03T20:57:00.651Z,9.82
2022-08-03T20:59:47.373Z,4.10
2022-08-03T21:02:30.173Z,5.25
2022-08-03T21:08:06.332Z,5.13
2022-08-03T21:10:38.443Z,4.70
2022-08-03T21:13:12.765Z,4.72
2022-08-03T21:13:17.637Z,4.72
2022-08-03T21:16:13.031Z,7.00
2022-08-03T21:18:41.037Z,4.05
2022-08-03T21:21:11.172Z,5.35
2022-08-03T21:23:48.734Z,5.93
2022-08-03T21:26:19.416Z,6.13
2022-08-03T21:28:48.815Z,9.20
2022-08-03T21:31:24.216Z,8.25
2022-08-03T21:33:54.938Z,6.72
2022-08-03T21:36:22.963Z,5.38
2022-08-03T21:38:56.496Z,5.35
2022-08-03T21:41:25.438Z,4.28
2022-08-03T21:43:53.579Z,3.58
2022-08-03T21:46:22.737Z,4.15
2022-08-03T21:48:56.072Z,4.88
2022-08-03T21:51:26.732Z,3.75
2022-08-03T21:54:03.173Z,6.90
2022-08-03T21:56:38.066Z,5.38
2022-08-03T21:59:08.630Z,4.30
2022-08-03T22:01:40.577Z,3.65
2022-08-03T22:04:11.931Z,5.47
2022-08-03T22:06:59.602Z,5.32
2022-08-03T22:09:29.682Z,5.13
2022-08-03T22:11:57.709Z,3.08
2022-08-03T22:14:25.882Z,3.95
2022-08-03T22:16:54.021Z,5.32
2022-08-03T22:19:22.023Z,3.17
2022-08-03T22:21:50.613Z,3.55
2022-08-03T22:24:23.912Z,5.03
2022-08-03T22:27:11.245Z,2.92
2022-08-03T22:29:42.888Z,6.55
2022-08-03T22:32:11.105Z,4.30
2022-08-03T22:34:40.856Z,2.95
2022-08-03T22:37:09.240Z,3.38
2022-08-03T22:39:39.485Z,2.67
2022-08-03T22:42:09.490Z,4.82
2022-08-03T22:44:37.659Z,4.20
2022-08-03T22:47:06.695Z,2.88
2022-08-03T22:49:36.340Z,2.38
2022-08-03T22:52:05.003Z,2.13
2022-08-03T22:54:33.610Z,2.33
2022-08-03T22:57:02.322Z,5.32
2022-08-03T22:59:40.124Z,3.42
2022-08-03T23:02:20.928Z,4.57
2022-08-03T23:04:52.140Z,2.05
2022-08-03T23:07:26.639Z,3.05
2022-08-03T23:09:55.764Z,3.22
2022-08-03T23:12:25.365Z,5.93
2022-08-03T23:14:57.726Z,3.88
2022-08-03T23:17:29.927Z,4.63
2022-08-03T23:20:01.289Z,6.15
2022-08-03T23:22:30.864Z,2.20
2022-08-03T23:25:03.582Z,2.53
2022-08-03T23:27:33.113Z,3.50
2022-08-03T23:30:03.334Z,3.70
2022-08-03T23:32:31.993Z,2.95
2022-08-03T23:35:19.713Z,5.30
2022-08-03T23:38:04.117Z,2.33
2022-08-03T23:40:38.398Z,2.88
2022-08-03T23:43:07.218Z,2.47
2022-08-03T23:45:39.179Z,3.97
2022-08-03T23:48:07.599Z,3.10
2022-08-03T23:50:47.713Z,2.45
2022-08-03T23:53:22.692Z,5.45
2022-08-03T23:56:07.080Z,1.73
2022-08-03T23:58:46.885Z,2.38
